Time;durP1;ratioP1;P1;durP2;ratioP2;P2;SDS_P1;SDS_P2;PMS_P1;PMS_P2;Temp;Humidity;BMP_temperature;BMP_pressure;BME280_temperature;BME280_humidity;BME280_pressure;Samples;Min_cycle;Max_cycle;Signal;HPM_P1;HPM_P2
2023/09/29 00:01:44;;;;;;;26.13;13.37;;;;;;;17.03;78.98;100788.13;4195406;28;20374;-65
2023/09/29 00:04:10;;;;;;;22.57;13.03;;;;;;;16.87;79.51;100774.56;4193850;28;20236;-66
2023/09/29 00:06:37;;;;;;;23.37;12.97;;;;;;;16.72;80.88;100782.66;4205815;28;20291;-65
2023/09/29 00:09:06;;;;;;;26.77;13.07;;;;;;;16.66;81.31;100780.66;4198845;28;20687;-65
2023/09/29 00:11:33;;;;;;;29.13;13.23;;;;;;;16.58;81.16;100776.94;4190489;28;20245;-67
2023/09/29 00:14:01;;;;;;;31.13;15.10;;;;;;;16.46;81.72;100778.38;4201780;28;20297;-67
2023/09/29 00:16:28;;;;;;;24.23;13.73;;;;;;;16.41;82.35;100781.63;4208968;28;20232;-67
2023/09/29 00:18:56;;;;;;;24.40;13.37;;;;;;;16.35;82.73;100779.63;4204675;28;23422;-65
2023/09/29 00:21:23;;;;;;;25.67;13.77;;;;;;;16.45;81.64;100772.03;4206009;28;22043;-66
2023/09/29 00:23:49;;;;;;;25.03;13.10;;;;;;;16.37;82.07;100780.28;4206711;28;20265;-64
2023/09/29 00:26:16;;;;;;;25.33;13.00;;;;;;;16.35;82.25;100776.00;4199916;28;20232;-65
2023/09/29 00:28:44;;;;;;;26.50;13.90;;;;;;;16.27;82.86;100779.66;4202027;28;27797;-66
2023/09/29 00:31:10;;;;;;;32.33;13.83;;;;;;;16.21;83.62;100772.13;4197244;28;20247;-67
2023/09/29 00:33:37;;;;;;;31.13;13.70;;;;;;;16.18;83.56;100777.97;4205697;28;20240;-65
2023/09/29 00:36:04;;;;;;;25.93;13.80;;;;;;;16.19;83.93;100766.84;4208338;28;26532;-65
2023/09/29 00:38:33;;;;;;;25.87;14.13;;;;;;;16.13;83.93;100779.31;4202470;28;20324;-65
2023/09/29 00:41:00;;;;;;;26.73;13.60;;;;;;;16.04;83.69;100771.34;4196224;28;20910;-66
2023/09/29 00:43:29;;;;;;;25.07;13.23;;;;;;;16.02;83.79;100768.78;4213335;28;20227;-66
2023/09/29 00:45:56;;;;;;;22.23;13.70;;;;;;;16.02;84.55;100768.78;4201629;28;21149;-65
2023/09/29 00:48:22;;;;;;;23.80;14.30;;;;;;;16.08;84.81;100768.09;4206196;28;20237;-64
2023/09/29 00:50:49;;;;;;;29.27;14.83;;;;;;;16.14;83.42;100770.13;4195460;28;20235;-65
2023/09/29 00:53:18;;;;;;;25.63;14.83;;;;;;;15.92;84.41;100769.00;4204449;28;20262;-67
2023/09/29 00:55:46;;;;;;;25.57;14.23;;;;;;;15.85;84.45;100773.44;4209721;28;20245;-65
2023/09/29 00:58:13;;;;;;;28.30;14.50;;;;;;;15.78;84.93;100769.69;4201283;28;20237;-67
2023/09/29 01:00:41;;;;;;;25.53;14.47;;;;;;;15.83;86.46;100770.03;4194560;28;20309;-65
2023/09/29 01:03:10;;;;;;;28.10;15.20;;;;;;;15.93;85.58;100775.28;4199461;28;23559;-65
2023/09/29 01:05:42;;;;;;;24.57;13.67;;;;;;;15.94;85.57;100774.28;4211749;28;20294;-66
2023/09/29 01:08:12;;;;;;;30.03;15.27;;;;;;;15.86;85.47;100775.16;4195903;28;20242;-66
2023/09/29 01:10:40;;;;;;;25.10;14.87;;;;;;;15.90;85.61;100778.41;4203896;28;21813;-64
2023/09/29 01:13:09;;;;;;;28.63;15.63;;;;;;;15.82;85.97;100779.22;4203443;28;20236;-65
2023/09/29 01:15:36;;;;;;;34.60;15.10;;;;;;;15.96;84.72;100764.03;4212245;28;20228;-65
2023/09/29 01:18:03;;;;;;;37.13;15.07;;;;;;;15.85;85.13;100768.00;4196137;28;20414;-68
2023/09/29 01:20:30;;;;;;;30.93;15.53;;;;;;;15.95;84.82;100774.09;4209189;28;21311;-66
2023/09/29 01:23:03;;;;;;;31.90;15.87;;;;;;;15.93;85.21;100769.84;4189014;28;20281;-65
2023/09/29 01:25:30;;;;;;;27.83;15.57;;;;;;;15.83;85.94;100767.31;4194357;28;21851;-66
2023/09/29 01:27:57;;;;;;;26.67;15.63;;;;;;;15.73;86.09;100766.59;4200816;28;20666;-65
2023/09/29 01:30:25;;;;;;;27.73;15.80;;;;;;;15.64;86.30;100757.59;4194217;28;20229;-64
2023/09/29 01:32:56;;;;;;;31.40;16.87;;;;;;;15.61;86.72;100764.25;4214011;28;20686;-66
2023/09/29 01:35:23;;;;;;;38.90;16.83;;;;;;;15.67;87.58;100759.97;4206812;28;20411;-64
2023/09/29 01:37:53;;;;;;;33.63;16.93;;;;;;;15.57;86.69;100751.94;4225100;28;20257;-65
2023/09/29 01:40:22;;;;;;;41.73;17.63;;;;;;;15.55;87.21;100750.44;4202315;28;20496;-65
2023/09/29 01:42:50;;;;;;;27.33;16.40;;;;;;;15.48;87.33;100751.13;4209457;28;20316;-64
2023/09/29 01:45:17;;;;;;;33.53;17.17;;;;;;;15.37;87.87;100740.53;4210296;28;22988;-64
2023/09/29 01:47:46;;;;;;;30.30;16.87;;;;;;;15.34;88.02;100746.38;4213074;28;20344;-66
2023/09/29 01:50:15;;;;;;;34.33;16.90;;;;;;;15.33;88.38;100752.84;4210733;28;21382;-66
2023/09/29 01:52:46;;;;;;;36.53;17.27;;;;;;;15.35;88.23;100743.44;4199855;28;20232;-64
2023/09/29 01:55:14;;;;;;;33.50;17.23;;;;;;;15.44;87.70;100746.19;4224793;28;20238;-66
2023/09/29 01:57:44;;;;;;;31.83;17.93;;;;;;;15.41;87.94;100750.09;4223776;28;21982;-65
2023/09/29 02:00:15;;;;;;;31.97;16.70;;;;;;;15.64;87.04;100743.94;4202033;28;20300;-66
2023/09/29 02:02:46;;;;;;;30.93;16.80;;;;;;;15.61;86.48;100747.00;4190163;28;20247;-67
2023/09/29 02:05:13;;;;;;;33.00;17.63;;;;;;;15.48;87.22;100748.41;4221582;28;21577;-66
2023/09/29 02:07:40;;;;;;;29.77;16.87;;;;;;;15.45;87.12;100753.34;4209110;28;20235;-65
2023/09/29 02:10:08;;;;;;;32.30;16.60;;;;;;;15.66;86.27;100747.34;4214026;28;20232;-64
2023/09/29 02:12:46;;;;;;;31.53;16.97;;;;;;;15.63;86.41;100750.41;4214701;28;22475;-63
2023/09/29 02:15:17;;;;;;;29.30;16.53;;;;;;;15.50;87.28;100748.22;4211918;28;20231;-65
2023/09/29 02:17:45;;;;;;;27.77;15.80;;;;;;;15.32;88.21;100754.72;4205597;28;22892;-67
2023/09/29 02:20:17;;;;;;;33.23;18.00;;;;;;;15.24;88.22;100749.28;4199683;28;20927;-65
2023/09/29 02:22:44;;;;;;;31.60;17.63;;;;;;;15.20;88.63;100750.63;4208263;28;20608;-66
2023/09/29 02:25:17;;;;;;;30.77;18.13;;;;;;;15.14;88.96;100748.56;4206521;28;20417;-65
2023/09/29 02:27:44;;;;;;;32.17;18.13;;;;;;;15.20;89.27;100747.88;4213053;28;20229;-65
2023/09/29 02:30:11;;;;;;;37.13;19.13;;;;;;;15.14;89.07;100738.53;4189241;28;20391;-68
2023/09/29 02:32:41;;;;;;;34.00;17.10;;;;;;;15.23;88.63;100738.50;4210673;28;20867;-67
2023/09/29 02:35:09;;;;;;;31.23;17.50;;;;;;;15.26;88.52;100739.00;4201464;28;20243;-66
2023/09/29 02:37:36;;;;;;;34.27;18.70;;;;;;;15.20;88.73;100734.25;4208209;28;20236;-65
2023/09/29 02:40:12;;;;;;;32.13;16.77;;;;;;;15.15;88.80;100737.47;4211690;28;21294;-66
2023/09/29 02:42:39;;;;;;;30.43;17.47;;;;;;;15.17;89.12;100740.91;4208473;28;23307;-66
2023/09/29 02:45:07;;;;;;;31.33;18.33;;;;;;;15.14;89.05;100737.66;4229770;28;23554;-67
2023/09/29 02:47:35;;;;;;;31.73;17.63;;;;;;;15.19;90.30;100740.72;4212335;28;21206;-67
2023/09/29 02:50:03;;;;;;;33.23;18.73;;;;;;;15.11;89.87;100735.25;4205265;28;20228;-67
2023/09/29 02:52:29;;;;;;;37.77;18.63;;;;;;;15.18;88.97;100730.88;4212978;28;20228;-65
2023/09/29 02:54:56;;;;;;;35.90;18.07;;;;;;;15.15;89.39;100736.66;4192984;28;20613;-64
2023/09/29 02:57:23;;;;;;;30.60;18.73;;;;;;;15.06;89.79;100733.06;4205937;28;20236;-68
2023/09/29 02:59:50;;;;;;;38.07;19.50;;;;;;;15.16;89.00;100738.34;4221903;28;20284;-67
2023/09/29 03:02:17;;;;;;;34.00;18.53;;;;;;;15.10;89.45;100739.88;4212591;28;20241;-67
2023/09/29 03:04:47;;;;;;;40.23;19.23;;;;;;;15.09;90.14;100742.78;4206634;28;20333;-67
2023/09/29 03:07:14;;;;;;;39.53;19.70;;;;;;;14.97;90.17;100740.38;4202234;28;20237;-64
2023/09/29 03:09:41;;;;;;;34.90;18.57;;;;;;;14.96;90.51;100738.66;4205487;28;21254;-65
2023/09/29 03:12:08;;;;;;;37.53;19.23;;;;;;;15.01;91.54;100746.34;4209578;28;20236;-66
2023/09/29 03:14:35;;;;;;;36.27;19.67;;;;;;;14.82;90.33;100740.19;4210284;28;20274;-64
2023/09/29 03:17:03;;;;;;;43.77;21.17;;;;;;;14.65;91.38;100741.16;4205350;28;20690;-64
2023/09/29 03:19:32;;;;;;;38.00;20.27;;;;;;;14.68;91.98;100744.41;4203477;28;20229;-64
2023/09/29 03:21:59;;;;;;;37.23;19.10;;;;;;;14.62;91.78;100741.47;4219379;28;20300;-68
2023/09/29 03:24:29;;;;;;;35.57;19.23;;;;;;;14.59;91.82;100742.66;4200634;28;25620;-66
2023/09/29 03:26:56;;;;;;;36.27;20.13;;;;;;;14.57;91.89;100737.38;4181513;28;20861;-67
2023/09/29 03:29:23;;;;;;;34.13;19.93;;;;;;;14.49;92.33;100748.25;4202103;28;22637;-66
2023/09/29 03:31:53;;;;;;;39.17;20.93;;;;;;;14.49;92.55;100747.41;4219408;28;20832;-66
2023/09/29 03:34:20;;;;;;;41.30;19.90;;;;;;;14.52;93.67;100741.63;4216807;28;20244;-66
2023/09/29 03:36:47;;;;;;;33.87;19.27;;;;;;;14.50;93.04;100740.97;4169805;28;20241;-69
2023/09/29 03:39:18;;;;;;;33.37;19.50;;;;;;;14.57;93.28;100739.28;4209111;28;20237;-64
2023/09/29 03:41:45;;;;;;;43.83;20.27;;;;;;;14.51;92.86;100751.69;4213701;28;20307;-65
2023/09/29 03:44:12;;;;;;;40.17;21.50;;;;;;;14.51;92.62;100738.06;4228814;28;20755;-64
2023/09/29 03:46:39;;;;;;;44.43;21.03;;;;;;;14.45;92.66;100729.69;4214401;28;20235;-69
2023/09/29 03:49:05;;;;;;;47.70;21.97;;;;;;;14.39;92.91;100728.47;4203303;28;21012;-65
2023/09/29 03:51:33;;;;;;;36.40;19.30;;;;;;;14.36;93.71;100731.53;4207378;28;20247;-65
2023/09/29 03:54:00;;;;;;;38.40;20.77;;;;;;;14.30;93.46;100726.75;4206787;28;20235;-66
2023/09/29 03:56:27;;;;;;;41.93;20.57;;;;;;;14.31;93.43;100723.84;4200645;28;20232;-66
2023/09/29 03:58:55;;;;;;;40.17;20.50;;;;;;;14.38;92.89;100741.25;4199853;28;21133;-65
2023/09/29 04:01:22;;;;;;;37.23;19.77;;;;;;;14.60;91.90;100729.91;4209173;28;21677;-65
2023/09/29 04:03:49;;;;;;;37.93;18.97;;;;;;;14.71;90.71;100732.34;4211998;28;20228;-65
2023/09/29 04:06:16;;;;;;;40.30;19.70;;;;;;;14.70;90.40;100730.63;4210317;28;20239;-64
2023/09/29 04:08:43;;;;;;;39.67;19.27;;;;;;;14.78;89.97;100725.19;4229010;28;20299;-65
2023/09/29 04:11:10;;;;;;;35.57;18.70;;;;;;;14.72;90.01;100731.31;4206896;28;21610;-70
2023/09/29 04:13:37;;;;;;;42.77;18.80;;;;;;;14.75;89.98;100725.53;4195948;28;20313;-64
2023/09/29 04:16:05;;;;;;;35.93;19.23;;;;;;;14.60;90.26;100721.72;4198295;28;20331;-64
2023/09/29 04:18:32;;;;;;;39.73;19.50;;;;;;;14.55;90.59;100733.13;4235108;28;20271;-65
2023/09/29 04:21:02;;;;;;;35.73;19.03;;;;;;;14.65;89.80;100724.78;4229263;28;20235;-79
2023/09/29 04:23:30;;;;;;;44.67;19.07;;;;;;;14.76;89.25;100719.06;4191005;28;21675;-74
2023/09/29 04:25:56;;;;;;;38.70;18.13;;;;;;;14.83;88.62;100713.78;4205424;28;20319;-75
2023/09/29 04:28:23;;;;;;;32.70;17.03;;;;;;;14.81;88.60;100721.28;4202050;28;20240;-51
2023/09/29 04:30:50;;;;;;;31.67;17.50;;;;;;;14.76;88.75;100721.81;4218542;28;20336;-76
2023/09/29 04:33:18;;;;;;;40.00;18.50;;;;;;;14.80;88.34;100717.72;4208247;28;25403;-77
2023/09/29 04:35:45;;;;;;;35.80;17.60;;;;;;;14.74;88.46;100715.66;4191609;28;20232;-79
2023/09/29 04:38:12;;;;;;;36.33;17.23;;;;;;;14.59;89.56;100715.41;4206620;28;20344;-76
2023/09/29 04:40:39;;;;;;;32.37;17.47;;;;;;;14.56;90.44;100718.50;4217473;28;20499;-73
2023/09/29 04:43:05;;;;;;;31.53;17.23;;;;;;;14.54;90.17;100726.81;4198449;28;20299;-75
2023/09/29 05:01:18;;;;;;;39.10;19.10;;;;;;;14.47;89.81;100720.31;4261729;27;20538;-70
2023/09/29 05:03:47;;;;;;;38.07;18.63;;;;;;;14.52;89.88;100723.41;4232798;28;21297;-73
2023/09/29 05:06:14;;;;;;;42.23;19.00;;;;;;;14.55;89.65;100719.50;4241392;28;20579;-70
2023/09/29 05:08:40;;;;;;;31.50;18.10;;;;;;;14.48;89.76;100724.75;4248936;28;20946;-70
2023/09/29 05:11:07;;;;;;;36.87;18.50;;;;;;;14.57;89.26;100722.91;4236007;28;20227;-69
2023/09/29 05:13:34;;;;;;;31.23;17.70;;;;;;;14.65;88.77;100722.91;4240159;28;20232;-68
2023/09/29 05:16:01;;;;;;;37.23;17.60;;;;;;;14.73;88.91;100719.41;4240005;28;21261;-71
2023/09/29 05:18:29;;;;;;;39.20;17.93;;;;;;;14.76;88.14;100718.22;4255450;28;20252;-69
2023/09/29 05:20:56;;;;;;;34.83;16.80;;;;;;;14.84;87.33;100723.66;4241695;28;21788;-70
2023/09/29 05:23:22;;;;;;;36.43;17.67;;;;;;;14.92;87.13;100722.84;4219629;28;20527;-68
2023/09/29 05:25:49;;;;;;;37.93;17.93;;;;;;;14.96;86.71;100718.75;4234556;28;20277;-69
2023/09/29 05:28:15;;;;;;;40.93;18.13;;;;;;;14.93;86.84;100727.25;4228618;28;20256;-69
2023/09/29 05:30:53;;;;;;;32.67;17.63;;;;;;;15.08;86.04;100720.09;4221164;28;20342;-70
2023/09/29 05:33:19;;;;;;;35.30;17.43;;;;;;;15.19;85.18;100727.97;4220963;28;22983;-71
2023/09/29 05:35:46;;;;;;;40.53;16.77;;;;;;;15.20;85.20;100721.47;4234947;28;20235;-67
2023/09/29 05:38:13;;;;;;;35.37;16.73;;;;;;;15.32;84.34;100726.56;4230346;28;20233;-68
2023/09/29 05:40:40;;;;;;;33.87;16.03;;;;;;;15.22;84.79;100734.94;4214384;28;20291;-68
2023/09/29 05:43:10;;;;;;;35.53;16.87;;;;;;;15.30;84.40;100729.50;4218066;28;20598;-71
2023/09/29 05:45:40;;;;;;;43.20;17.53;;;;;;;15.32;84.34;100727.44;4218382;28;21710;-69
2023/09/29 05:48:07;;;;;;;39.07;16.37;;;;;;;15.46;83.70;100725.03;4223346;28;20251;-70
2023/09/29 05:50:34;;;;;;;33.37;16.90;;;;;;;15.41;83.79;100735.63;4220315;28;20220;-71
2023/09/29 05:53:02;;;;;;;34.10;16.63;;;;;;;15.43;83.80;100728.97;4217394;28;20227;-70
2023/09/29 05:55:37;;;;;;;34.93;16.63;;;;;;;15.50;83.07;100727.25;4214892;28;23074;-70
2023/09/29 05:58:04;;;;;;;36.53;17.00;;;;;;;15.45;83.64;100731.53;4230619;28;20678;-72
2023/09/29 06:00:31;;;;;;;32.20;15.97;;;;;;;15.63;82.78;100731.31;4229557;28;20264;-73
2023/09/29 06:02:59;;;;;;;31.67;14.93;;;;;;;15.79;82.20;100733.16;4214080;28;20228;-72
2023/09/29 06:05:27;;;;;;;33.07;15.67;;;;;;;15.86;81.53;100738.81;4214302;28;20304;-71
2023/09/29 06:07:57;;;;;;;32.93;15.40;;;;;;;16.00;80.98;100736.22;4236442;28;20245;-70
2023/09/29 06:10:25;;;;;;;29.77;15.23;;;;;;;16.04;80.56;100736.72;4225461;28;20233;-71
2023/09/29 06:12:51;;;;;;;29.77;14.67;;;;;;;16.24;80.19;100737.13;4214670;28;20381;-72
2023/09/29 06:15:19;;;;;;;23.73;14.90;;;;;;;16.35;79.75;100738.63;4216896;28;22360;-71
2023/09/29 06:17:45;;;;;;;27.93;14.80;;;;;;;16.50;79.06;100735.16;4226534;28;20338;-71
2023/09/29 06:20:12;;;;;;;26.60;14.33;;;;;;;16.59;78.28;100729.44;4198648;28;20440;-72
2023/09/29 06:22:39;;;;;;;32.30;14.40;;;;;;;16.63;78.40;100738.97;4217911;28;20431;-72
2023/09/29 06:25:06;;;;;;;25.23;14.77;;;;;;;16.71;78.16;100740.81;4219560;28;21917;-74
2023/09/29 06:27:32;;;;;;;32.47;15.30;;;;;;;16.68;78.62;100735.69;4227016;28;20907;-72
2023/09/29 06:29:59;;;;;;;32.93;15.43;;;;;;;16.75;78.14;100738.59;4226250;28;20323;-73
2023/09/29 06:32:26;;;;;;;29.90;15.17;;;;;;;16.77;77.85;100741.97;4219883;28;20245;-73
2023/09/29 06:34:53;;;;;;;30.57;14.73;;;;;;;16.96;76.84;100735.19;4212029;28;20265;-71
2023/09/29 06:37:19;;;;;;;28.47;15.17;;;;;;;17.21;76.21;100741.34;4217602;28;20259;-72
2023/09/29 06:39:46;;;;;;;26.60;14.83;;;;;;;17.32;75.46;100736.47;4204725;28;20359;-74
2023/09/29 06:42:13;;;;;;;30.83;14.30;;;;;;;17.31;75.60;100737.50;4213253;28;21359;-71
2023/09/29 06:44:40;;;;;;;27.23;13.63;;;;;;;17.42;75.17;100737.06;4220124;28;20241;-70
2023/09/29 06:47:07;;;;;;;23.83;14.63;;;;;;;17.51;74.30;100735.97;4218143;28;20237;-71
2023/09/29 06:49:34;;;;;;;24.77;13.63;;;;;;;17.72;73.78;100739.84;4217540;28;20307;-71
2023/09/29 06:52:00;;;;;;;26.10;13.97;;;;;;;17.79;73.34;100742.69;4214488;28;20240;-69
2023/09/29 06:54:27;;;;;;;29.10;14.33;;;;;;;17.90;73.02;100745.78;4238746;28;20241;-70
2023/09/29 06:56:55;;;;;;;26.87;13.87;;;;;;;18.13;71.85;100753.09;4220880;28;20237;-73
2023/09/29 06:59:22;;;;;;;29.00;14.63;;;;;;;18.34;71.14;100751.50;4200391;28;20237;-70
2023/09/29 07:01:48;;;;;;;28.67;14.47;;;;;;;18.33;70.88;100750.63;4207118;28;21075;-69
2023/09/29 07:04:15;;;;;;;28.23;14.27;;;;;;;18.34;71.38;100746.84;4218855;28;20235;-71
2023/09/29 07:06:42;;;;;;;29.47;14.10;;;;;;;18.33;71.16;100749.78;4209865;28;20240;-70
2023/09/29 07:09:09;;;;;;;29.63;14.27;;;;;;;18.57;70.16;100747.78;4202795;28;20245;-67
2023/09/29 07:11:40;;;;;;;31.10;14.70;;;;;;;18.70;70.41;100745.19;4216084;28;20225;-68
2023/09/29 07:14:07;;;;;;;29.00;13.67;;;;;;;18.92;70.23;100746.06;4209317;28;20235;-69
2023/09/29 07:16:33;;;;;;;29.17;13.70;;;;;;;19.46;68.35;100743.81;4210307;28;26654;-65
2023/09/29 07:19:01;;;;;;;25.90;13.07;;;;;;;21.31;63.03;100745.94;4208975;28;20236;-68
2023/09/29 07:21:30;;;;;;;32.70;13.27;;;;;;;23.58;54.03;100739.78;4210326;28;20317;-69
2023/09/29 07:23:57;;;;;;;26.30;10.73;;;;;;;26.80;46.45;100740.38;4217816;28;20232;-68
2023/09/29 07:26:24;;;;;;;19.83;10.57;;;;;;;27.91;41.84;100738.06;4217719;28;21160;-70
2023/09/29 07:28:51;;;;;;;22.57;10.37;;;;;;;29.45;38.74;100737.31;4240387;28;20233;-68
2023/09/29 07:31:18;;;;;;;20.57;11.30;;;;;;;30.32;37.01;100740.69;4260722;28;20278;-68
2023/09/29 07:33:44;;;;;;;20.08;9.95;;;;;;;32.23;33.86;100746.41;4215700;28;20617;-67
2023/09/29 07:36:11;;;;;;;22.48;9.65;;;;;;;33.17;31.75;100747.59;4210758;28;20240;-69
2023/09/29 07:38:38;;;;;;;25.67;9.88;;;;;;;31.93;33.07;100753.75;4209218;28;20237;-67
2023/09/29 07:41:05;;;;;;;24.92;11.60;;;;;;;32.85;31.79;100754.53;4204758;28;20420;-68
2023/09/29 07:43:31;;;;;;;24.15;10.32;;;;;;;33.77;30.15;100754.09;4211075;28;22311;-69
2023/09/29 07:45:58;;;;;;;29.33;10.57;;;;;;;34.10;30.12;100745.91;4232826;28;20431;-68
2023/09/29 07:48:25;;;;;;;30.45;10.32;;;;;;;35.30;28.12;100752.44;4217985;28;20226;-68
2023/09/29 07:50:52;;;;;;;32.35;11.98;;;;;;;34.64;29.35;100743.00;4218346;28;20401;-68
2023/09/29 07:53:19;;;;;;;25.75;9.98;;;;;;;34.99;27.99;100744.50;4229553;28;22009;-67
2023/09/29 07:55:46;;;;;;;29.13;9.07;;;;;;;34.43;28.71;100740.47;4238585;28;20282;-68
2023/09/29 07:58:12;;;;;;;41.83;13.85;;;;;;;34.13;29.75;100736.91;4243553;28;20235;-67
2023/09/29 08:00:39;;;;;;;27.42;10.43;;;;;;;33.59;30.46;100736.88;4243622;28;20246;-67
2023/09/29 08:03:06;;;;;;;27.60;10.88;;;;;;;34.22;29.49;100737.06;4261818;28;20403;-69
2023/09/29 08:05:33;;;;;;;23.73;9.43;;;;;;;36.29;26.54;100743.88;4225462;28;20627;-66
2023/09/29 08:08:00;;;;;;;22.85;8.73;;;;;;;37.08;25.88;100743.81;4225419;28;23271;-66
2023/09/29 08:10:27;;;;;;;26.83;10.32;;;;;;;35.05;27.85;100740.44;4225223;28;20450;-68
2023/09/29 08:12:55;;;;;;;24.08;9.57;;;;;;;35.97;26.85;100747.59;4223643;28;20293;-67
2023/09/29 08:15:24;;;;;;;18.17;9.02;;;;;;;36.24;26.41;100746.78;4215827;28;20308;-68
2023/09/29 08:17:51;;;;;;;19.40;9.13;;;;;;;35.80;26.69;100751.00;4257334;28;23984;-69
2023/09/29 08:20:18;;;;;;;15.55;8.57;;;;;;;36.32;26.15;100750.84;4227494;28;21343;-67
2023/09/29 08:22:45;;;;;;;22.58;9.80;;;;;;;35.92;26.89;100747.72;4257523;28;20258;-70
2023/09/29 08:25:15;;;;;;;26.30;9.75;;;;;;;35.49;27.50;100746.78;4203190;28;20324;-68
2023/09/29 08:27:42;;;;;;;20.02;9.23;;;;;;;36.56;25.83;100749.81;4242212;28;20232;-68
2023/09/29 08:30:10;;;;;;;18.42;8.95;;;;;;;34.89;27.71;100745.50;4249031;28;20234;-68
2023/09/29 08:32:39;;;;;;;22.48;8.85;;;;;;;33.49;30.28;100751.84;4258603;28;21234;-68
2023/09/29 08:35:06;;;;;;;20.92;8.80;;;;;;;31.75;32.45;100746.81;4219837;28;20228;-66
2023/09/29 08:37:33;;;;;;;31.65;9.73;;;;;;;29.94;35.84;100741.88;4214642;28;20285;-68
2023/09/29 08:39:59;;;;;;;18.48;9.68;;;;;;;29.53;37.20;100748.81;4207681;28;20233;-69
2023/09/29 08:42:44;;;;;;;20.40;9.43;;;;;;;29.02;38.66;100745.56;4213387;28;22054;-65
2023/09/29 08:45:12;;;;;;;25.75;8.98;;;;;;;28.66;39.11;100740.44;4229436;28;20242;-66
2023/09/29 08:47:40;;;;;;;26.33;9.48;;;;;;;28.75;39.38;100746.41;4228330;28;21760;-68
2023/09/29 08:50:09;;;;;;;18.98;8.40;;;;;;;28.31;39.90;100750.03;4198902;28;20285;-68
2023/09/29 08:52:36;;;;;;;21.13;8.90;;;;;;;28.18;39.78;100736.50;4228628;28;20545;-69
2023/09/29 08:55:03;;;;;;;16.83;8.02;;;;;;;27.96;40.11;100737.28;4204057;28;20575;-68
2023/09/29 08:57:30;;;;;;;22.93;9.20;;;;;;;27.79;41.05;100740.13;4207456;28;20233;-61
2023/09/29 09:00:00;;;;;;;26.10;8.60;;;;;;;27.69;41.38;100732.44;4233915;28;20241;-72
2023/09/29 09:02:27;;;;;;;18.67;8.35;;;;;;;27.98;40.69;100738.72;4235859;28;20241;-55
2023/09/29 09:04:57;;;;;;;21.60;7.40;;;;;;;27.86;40.54;100739.91;4241876;28;20244;-74
2023/09/29 09:07:24;;;;;;;18.17;7.00;;;;;;;28.28;39.38;100739.44;4215879;28;20261;-72
2023/09/29 09:09:55;;;;;;;24.63;8.27;;;;;;;27.93;40.00;100737.78;4286684;28;20237;-76
2023/09/29 09:12:35;;;;;;;16.97;8.50;;;;;;;27.91;40.38;100729.72;4276673;28;20233;-76
2023/09/29 09:15:05;;;;;;;17.67;7.33;;;;;;;27.72;40.46;100731.94;4238082;28;20257;-75
2023/09/29 09:17:35;;;;;;;21.30;7.20;;;;;;;27.61;40.68;100738.44;4252189;28;25199;-74
2023/09/29 09:20:03;;;;;;;23.27;7.50;;;;;;;27.41;41.51;100730.59;4237335;28;20242;-72
2023/09/29 09:22:38;;;;;;;17.60;7.07;;;;;;;27.29;41.08;100728.72;4214164;28;20239;-74
2023/09/29 09:25:14;;;;;;;19.87;7.90;;;;;;;27.15;42.30;100724.59;4231327;28;20240;-69
2023/09/29 09:27:43;;;;;;;19.47;6.43;;;;;;;27.30;40.91;100727.63;4210073;28;24801;-67
2023/09/29 09:30:21;;;;;;;18.57;7.67;;;;;;;27.41;40.86;100727.81;4200543;28;21720;-69
2023/09/29 09:32:47;;;;;;;24.07;7.63;;;;;;;26.97;42.14;100722.91;4249421;28;20261;-69
2023/09/29 09:35:28;;;;;;;19.97;7.87;;;;;;;26.82;42.93;100724.31;4217361;28;20229;-70
2023/09/29 09:37:59;;;;;;;18.40;6.80;;;;;;;27.17;41.35;100723.25;4220204;28;20721;-67
2023/09/29 09:40:26;;;;;;;15.87;6.50;;;;;;;26.79;41.71;100726.75;4230738;28;20240;-68
2023/09/29 09:42:54;;;;;;;16.00;6.90;;;;;;;26.65;42.39;100717.81;4231322;28;20236;-71
2023/09/29 09:45:24;;;;;;;22.13;7.07;;;;;;;26.82;42.60;100720.66;4225288;28;20272;-70
2023/09/29 09:47:57;;;;;;;17.67;7.30;;;;;;;26.57;43.13;100716.31;4211229;28;20232;-67
2023/09/29 09:50:28;;;;;;;17.27;7.15;;;;;;;26.56;43.65;100715.44;4229521;28;20313;-69
2023/09/29 09:52:56;;;;;;;18.20;6.23;;;;;;;26.78;40.82;100712.00;4260353;28;20246;-69
2023/09/29 09:55:39;;;;;;;13.60;6.20;;;;;;;26.75;40.86;100709.69;4215647;28;20643;-69
2023/09/29 09:58:09;;;;;;;18.73;6.13;;;;;;;26.72;40.43;100712.97;4242629;28;25604;-67
2023/09/29 10:00:39;;;;;;;14.40;5.60;;;;;;;26.51;40.37;100706.19;4225787;28;23525;-69
2023/09/29 10:03:11;;;;;;;17.52;6.43;;;;;;;26.39;40.43;100700.69;4215877;28;22693;-68
2023/09/29 10:05:46;;;;;;;11.57;6.03;;;;;;;26.21;41.41;100710.03;4209687;28;20394;-67
2023/09/29 10:08:31;;;;;;;20.93;6.43;;;;;;;26.52;40.26;100700.38;4217208;28;20241;-65
2023/09/29 10:11:15;;;;;;;19.02;6.13;;;;;;;26.54;40.55;100700.97;4227904;28;20311;-66
2023/09/29 10:13:44;;;;;;;16.83;5.67;;;;;;;26.47;41.20;100696.66;4217668;28;20235;-65
2023/09/29 10:16:22;;;;;;;15.05;5.85;;;;;;;26.43;41.51;100701.84;4210986;28;20653;-66
2023/09/29 10:19:01;;;;;;;16.37;5.77;;;;;;;26.57;41.15;100702.41;4226535;28;20439;-68
2023/09/29 10:21:40;;;;;;;14.57;5.73;;;;;;;26.78;40.80;100698.09;4233627;28;20426;-68
2023/09/29 10:24:11;;;;;;;13.10;5.37;;;;;;;26.76;40.00;100691.97;4211592;28;20665;-69
2023/09/29 10:26:42;;;;;;;17.65;5.53;;;;;;;27.18;38.99;100687.97;4205813;28;21700;-69
2023/09/29 10:29:24;;;;;;;15.60;5.33;;;;;;;26.97;37.63;100693.16;4217515;28;20263;-70
2023/09/29 10:31:51;;;;;;;12.68;5.07;;;;;;;26.97;37.71;100684.84;4222311;28;20232;-70
2023/09/29 10:34:21;;;;;;;11.17;4.90;;;;;;;26.88;37.93;100692.75;4216239;28;21410;-67
2023/09/29 10:36:55;;;;;;;12.23;4.57;;;;;;;26.92;37.77;100684.75;4212561;28;20229;-66
2023/09/29 10:39:26;;;;;;;13.40;5.20;;;;;;;26.93;37.70;100689.22;4211202;28;20239;-68
2023/09/29 10:42:15;;;;;;;13.90;5.27;;;;;;;26.85;37.83;100681.28;4223267;28;25466;-70
2023/09/29 10:44:56;;;;;;;12.10;5.60;;;;;;;26.87;36.69;100685.50;4226347;28;20240;-68
2023/09/29 10:47:33;;;;;;;11.47;4.90;;;;;;;26.78;36.78;100680.59;4212539;28;20686;-67
2023/09/29 10:50:04;;;;;;;16.03;5.13;;;;;;;26.64;37.38;100680.91;4223161;28;23031;-67
2023/09/29 10:52:31;;;;;;;15.73;5.47;;;;;;;26.92;36.38;100681.16;4226366;28;20231;-67
2023/09/29 10:55:04;;;;;;;14.23;4.57;;;;;;;26.81;36.21;100669.84;4197283;28;25632;-68
2023/09/29 10:57:31;;;;;;;9.43;4.87;;;;;;;26.88;36.53;100664.97;4226785;28;20243;-54
2023/09/29 10:59:59;;;;;;;13.60;5.40;;;;;;;26.88;36.84;100666.91;4200348;28;22096;-46
2023/09/29 11:02:32;;;;;;;17.77;5.00;;;;;;;26.95;36.56;100664.81;4225473;28;20310;-47
2023/09/29 11:05:02;;;;;;;12.37;4.90;;;;;;;27.01;36.30;100668.50;4218957;28;20280;-64
2023/09/29 11:07:29;;;;;;;13.60;4.67;;;;;;;26.88;35.96;100655.81;4225438;28;22594;-65
2023/09/29 11:09:59;;;;;;;12.37;4.13;;;;;;;26.80;35.67;100651.50;4204885;28;20241;-67
2023/09/29 11:12:28;;;;;;;12.33;4.33;;;;;;;26.78;35.45;100650.88;4214106;28;20613;-67
2023/09/29 11:15:07;;;;;;;11.50;4.53;;;;;;;26.87;35.48;100656.91;4233953;28;20579;-66
2023/09/29 11:17:50;;;;;;;12.90;4.60;;;;;;;26.81;35.49;100641.25;4203467;28;20912;-65
2023/09/29 11:20:26;;;;;;;14.37;4.90;;;;;;;26.75;35.33;100634.72;4211187;28;21952;-66
2023/09/29 11:22:59;;;;;;;23.83;4.30;;;;;;;26.74;34.54;100642.19;4218183;28;20331;-68
2023/09/29 11:25:26;;;;;;;10.63;4.70;;;;;;;26.73;35.27;100645.22;4200941;28;20241;-68
2023/09/29 11:27:53;;;;;;;12.53;4.90;;;;;;;26.88;35.16;100637.19;4202493;28;21086;-67
2023/09/29 11:30:24;;;;;;;10.17;4.60;;;;;;;26.74;34.97;100631.06;4237990;28;20241;-68
2023/09/29 11:32:52;;;;;;;12.80;4.70;;;;;;;26.73;34.85;100623.88;4217468;28;20232;-68
2023/09/29 11:35:21;;;;;;;13.63;4.63;;;;;;;26.91;34.57;100615.56;4201196;28;20538;-67